sensor_id;sensor_type;location;lat;lon;timestamp;P1;P2;P0
77413;PMS7003;66486;49.992;19.164;2023-06-24T00:02:14;8.00;7.50;5.50
77413;PMS7003;66486;49.992;19.164;2023-06-24T00:04:40;8.00;7.75;6.50
77413;PMS7003;66486;49.992;19.164;2023-06-24T00:07:06;6.75;6.75;5.00
77413;PMS7003;66486;49.992;19.164;2023-06-24T00:09:32;7.50;6.25;5.00
77413;PMS7003;66486;49.992;19.164;2023-06-24T00:11:58;7.25;7.25;6.50
77413;PMS7003;66486;49.992;19.164;2023-06-24T00:14:25;5.00;5.00;4.25
77413;PMS7003;66486;49.992;19.164;2023-06-24T00:16:53;5.25;5.25;3.75
77413;PMS7003;66486;49.992;19.164;2023-06-24T00:19:20;7.75;7.75;6.75
77413;PMS7003;66486;49.992;19.164;2023-06-24T00:21:47;6.50;6.50;5.25
77413;PMS7003;66486;49.992;19.164;2023-06-24T00:24:16;5.50;5.50;4.75
77413;PMS7003;66486;49.992;19.164;2023-06-24T00:26:51;8.00;7.00;5.75
77413;PMS7003;66486;49.992;19.164;2023-06-24T00:29:18;7.00;7.00;6.25
77413;PMS7003;66486;49.992;19.164;2023-06-24T00:31:44;6.25;6.25;4.50
77413;PMS7003;66486;49.992;19.164;2023-06-24T00:34:10;6.00;6.00;6.00
77413;PMS7003;66486;49.992;19.164;2023-06-24T00:36:36;7.50;7.50;6.50
77413;PMS7003;66486;49.992;19.164;2023-06-24T00:39:03;7.00;7.00;6.25
77413;PMS7003;66486;49.992;19.164;2023-06-24T00:41:31;7.50;7.50;6.50
77413;PMS7003;66486;49.992;19.164;2023-06-24T00:43:58;7.25;7.00;5.75
77413;PMS7003;66486;49.992;19.164;2023-06-24T00:46:25;7.00;7.00;6.00
77413;PMS7003;66486;49.992;19.164;2023-06-24T00:48:51;6.00;6.00;4.00
77413;PMS7003;66486;49.992;19.164;2023-06-24T00:51:19;8.00;8.00;5.75
77413;PMS7003;66486;49.992;19.164;2023-06-24T00:53:59;7.75;6.75;6.50
77413;PMS7003;66486;49.992;19.164;2023-06-24T00:56:28;6.25;6.25;5.00
77413;PMS7003;66486;49.992;19.164;2023-06-24T00:58:57;4.50;4.50;3.00
77413;PMS7003;66486;49.992;19.164;2023-06-24T01:01:30;7.50;7.50;4.75
77413;PMS7003;66486;49.992;19.164;2023-06-24T01:03:59;8.00;8.00;7.00
77413;PMS7003;66486;49.992;19.164;2023-06-24T01:06:26;8.25;8.00;7.00
77413;PMS7003;66486;49.992;19.164;2023-06-24T01:08:57;7.50;7.00;6.00
77413;PMS7003;66486;49.992;19.164;2023-06-24T01:11:29;6.75;6.75;6.50
77413;PMS7003;66486;49.992;19.164;2023-06-24T01:13:56;4.00;3.00;2.50
77413;PMS7003;66486;49.992;19.164;2023-06-24T01:19:20;7.00;6.50;5.00
77413;PMS7003;66486;49.992;19.164;2023-06-24T01:22:06;7.75;7.75;6.75
77413;PMS7003;66486;49.992;19.164;2023-06-24T01:30:10;5.50;5.50;4.00
77413;PMS7003;66486;49.992;19.164;2023-06-24T01:33:04;5.75;4.75;3.50
77413;PMS7003;66486;49.992;19.164;2023-06-24T01:35:34;5.50;5.50;4.50
77413;PMS7003;66486;49.992;19.164;2023-06-24T01:38:10;6.75;6.75;6.00
77413;PMS7003;66486;49.992;19.164;2023-06-24T01:40:48;4.25;4.25;3.00
77413;PMS7003;66486;49.992;19.164;2023-06-24T01:43:15;4.00;4.00;3.25
77413;PMS7003;66486;49.992;19.164;2023-06-24T01:45:45;6.00;6.00;4.25
77413;PMS7003;66486;49.992;19.164;2023-06-24T01:48:15;4.25;4.25;4.00
77413;PMS7003;66486;49.992;19.164;2023-06-24T01:50:47;4.00;4.00;3.50
77413;PMS7003;66486;49.992;19.164;2023-06-24T01:53:21;6.00;6.00;3.00
77413;PMS7003;66486;49.992;19.164;2023-06-24T01:55:48;4.00;4.00;4.00
77413;PMS7003;66486;49.992;19.164;2023-06-24T01:58:15;5.25;5.25;4.75
77413;PMS7003;66486;49.992;19.164;2023-06-24T02:00:43;6.25;6.25;5.00
77413;PMS7003;66486;49.992;19.164;2023-06-24T02:03:09;2.00;1.00;1.00
77413;PMS7003;66486;49.992;19.164;2023-06-24T02:05:37;6.00;6.00;4.00
77413;PMS7003;66486;49.992;19.164;2023-06-24T02:08:07;7.75;7.75;6.00
77413;PMS7003;66486;49.992;19.164;2023-06-24T02:10:38;7.00;7.00;6.00
77413;PMS7003;66486;49.992;19.164;2023-06-24T02:13:05;5.00;5.00;4.25
77413;PMS7003;66486;49.992;19.164;2023-06-24T02:15:35;4.00;4.00;3.00
77413;PMS7003;66486;49.992;19.164;2023-06-24T02:18:03;8.00;8.00;6.75
77413;PMS7003;66486;49.992;19.164;2023-06-24T02:20:31;6.50;6.50;6.00
77413;PMS7003;66486;49.992;19.164;2023-06-24T02:22:58;6.00;6.00;4.00
77413;PMS7003;66486;49.992;19.164;2023-06-24T02:25:25;3.50;3.50;2.50
77413;PMS7003;66486;49.992;19.164;2023-06-24T02:27:52;7.25;7.25;6.25
77413;PMS7003;66486;49.992;19.164;2023-06-24T02:30:19;6.25;6.25;4.00
77413;PMS7003;66486;49.992;19.164;2023-06-24T02:32:47;6.25;6.25;4.25
77413;PMS7003;66486;49.992;19.164;2023-06-24T02:35:13;6.67;6.67;6.00
77413;PMS7003;66486;49.992;19.164;2023-06-24T02:37:39;7.00;7.00;4.00
77413;PMS7003;66486;49.992;19.164;2023-06-24T02:40:05;7.00;7.00;6.00
77413;PMS7003;66486;49.992;19.164;2023-06-24T02:42:33;6.00;6.00;5.25
77413;PMS7003;66486;49.992;19.164;2023-06-24T02:44:59;6.00;6.00;4.00
77413;PMS7003;66486;49.992;19.164;2023-06-24T02:47:27;7.00;7.00;6.00
77413;PMS7003;66486;49.992;19.164;2023-06-24T02:49:53;6.75;6.75;6.00
77413;PMS7003;66486;49.992;19.164;2023-06-24T02:52:21;6.00;6.00;4.00
77413;PMS7003;66486;49.992;19.164;2023-06-24T02:54:47;7.33;7.33;6.33
77413;PMS7003;66486;49.992;19.164;2023-06-24T02:57:14;7.00;7.00;6.00
77413;PMS7003;66486;49.992;19.164;2023-06-24T02:59:41;7.75;7.75;6.00
77413;PMS7003;66486;49.992;19.164;2023-06-24T03:02:07;7.00;7.00;6.00
77413;PMS7003;66486;49.992;19.164;2023-06-24T03:04:34;6.25;6.25;6.00
77413;PMS7003;66486;49.992;19.164;2023-06-24T03:07:00;6.25;6.25;4.75
77413;PMS7003;66486;49.992;19.164;2023-06-24T03:09:27;7.00;7.00;6.00
77413;PMS7003;66486;49.992;19.164;2023-06-24T03:11:54;8.75;8.00;6.00
77413;PMS7003;66486;49.992;19.164;2023-06-24T03:14:19;6.67;6.67;4.00
77413;PMS7003;66486;49.992;19.164;2023-06-24T03:16:46;6.50;6.50;5.00
77413;PMS7003;66486;49.992;19.164;2023-06-24T03:19:11;7.33;7.33;6.00
77413;PMS7003;66486;49.992;19.164;2023-06-24T03:21:37;7.50;7.50;5.75
77413;PMS7003;66486;49.992;19.164;2023-06-24T03:24:03;6.33;6.33;6.00
77413;PMS7003;66486;49.992;19.164;2023-06-24T03:26:36;6.00;6.00;4.00
77413;PMS7003;66486;49.992;19.164;2023-06-24T03:29:03;7.50;7.50;6.50
77413;PMS7003;66486;49.992;19.164;2023-06-24T03:31:30;8.25;8.25;6.50
77413;PMS7003;66486;49.992;19.164;2023-06-24T03:33:56;8.00;7.25;6.25
77413;PMS7003;66486;49.992;19.164;2023-06-24T03:36:22;6.00;6.00;5.25
77413;PMS7003;66486;49.992;19.164;2023-06-24T03:38:49;7.25;7.25;6.00
77413;PMS7003;66486;49.992;19.164;2023-06-24T03:41:16;8.25;8.25;6.75
77413;PMS7003;66486;49.992;19.164;2023-06-24T03:43:42;8.33;8.33;7.00
77413;PMS7003;66486;49.992;19.164;2023-06-24T03:46:09;7.00;7.00;6.25
77413;PMS7003;66486;49.992;19.164;2023-06-24T03:48:35;7.00;7.00;5.33
77413;PMS7003;66486;49.992;19.164;2023-06-24T03:51:01;7.00;7.00;6.25
77413;PMS7003;66486;49.992;19.164;2023-06-24T03:53:27;6.33;6.33;4.00
77413;PMS7003;66486;49.992;19.164;2023-06-24T03:55:53;7.00;7.00;5.67
77413;PMS7003;66486;49.992;19.164;2023-06-24T03:58:18;7.33;7.00;7.00
77413;PMS7003;66486;49.992;19.164;2023-06-24T04:00:46;8.00;8.00;7.25
77413;PMS7003;66486;49.992;19.164;2023-06-24T04:03:17;7.25;7.25;6.00
77413;PMS7003;66486;49.992;19.164;2023-06-24T04:05:46;8.00;8.00;6.00
77413;PMS7003;66486;49.992;19.164;2023-06-24T04:08:12;7.67;7.67;6.00
77413;PMS7003;66486;49.992;19.164;2023-06-24T04:10:38;9.00;9.00;7.25
77413;PMS7003;66486;49.992;19.164;2023-06-24T04:13:04;8.33;8.00;6.00
77413;PMS7003;66486;49.992;19.164;2023-06-24T04:15:30;9.75;8.75;6.75
77413;PMS7003;66486;49.992;19.164;2023-06-24T04:17:55;7.67;7.67;7.00
77413;PMS7003;66486;49.992;19.164;2023-06-24T04:20:22;7.50;7.50;6.50
77413;PMS7003;66486;49.992;19.164;2023-06-24T04:22:47;7.00;7.00;6.00
77413;PMS7003;66486;49.992;19.164;2023-06-24T04:25:13;8.50;8.25;7.00
77413;PMS7003;66486;49.992;19.164;2023-06-24T04:27:39;7.67;7.67;6.00
77413;PMS7003;66486;49.992;19.164;2023-06-24T04:30:05;8.75;8.75;6.50
77413;PMS7003;66486;49.992;19.164;2023-06-24T04:32:32;11.75;10.00;8.00
77413;PMS7003;66486;49.992;19.164;2023-06-24T04:34:59;6.75;6.75;5.75
77413;PMS7003;66486;49.992;19.164;2023-06-24T04:37:26;9.00;9.00;7.00
77413;PMS7003;66486;49.992;19.164;2023-06-24T04:39:52;9.00;8.25;7.00
77413;PMS7003;66486;49.992;19.164;2023-06-24T04:42:18;8.33;8.33;7.00
77413;PMS7003;66486;49.992;19.164;2023-06-24T04:44:44;12.00;12.00;7.50
77413;PMS7003;66486;49.992;19.164;2023-06-24T04:47:10;13.33;13.00;8.00
77413;PMS7003;66486;49.992;19.164;2023-06-24T04:49:37;12.00;12.00;9.00
77413;PMS7003;66486;49.992;19.164;2023-06-24T04:52:02;12.33;12.33;9.33
77413;PMS7003;66486;49.992;19.164;2023-06-24T04:54:29;10.25;10.25;8.25
77413;PMS7003;66486;49.992;19.164;2023-06-24T04:56:55;14.33;14.00;8.67
77413;PMS7003;66486;49.992;19.164;2023-06-24T04:59:21;10.00;10.00;8.25
77413;PMS7003;66486;49.992;19.164;2023-06-24T05:01:47;12.33;12.33;9.00
77413;PMS7003;66486;49.992;19.164;2023-06-24T05:04:13;14.25;13.00;9.75
77413;PMS7003;66486;49.992;19.164;2023-06-24T05:06:39;14.00;14.00;8.33
77413;PMS7003;66486;49.992;19.164;2023-06-24T05:09:05;13.75;13.75;9.00
77413;PMS7003;66486;49.992;19.164;2023-06-24T05:11:31;14.33;14.00;10.00
77413;PMS7003;66486;49.992;19.164;2023-06-24T05:13:57;15.25;14.25;10.25
77413;PMS7003;66486;49.992;19.164;2023-06-24T05:16:23;12.00;12.00;9.00
77413;PMS7003;66486;49.992;19.164;2023-06-24T05:18:50;13.75;13.75;9.00
77413;PMS7003;66486;49.992;19.164;2023-06-24T05:21:16;14.50;14.50;10.50
77413;PMS7003;66486;49.992;19.164;2023-06-24T05:23:42;12.50;12.50;7.75
77413;PMS7003;66486;49.992;19.164;2023-06-24T05:26:08;14.00;14.00;9.67
77413;PMS7003;66486;49.992;19.164;2023-06-24T05:28:34;15.75;14.50;11.00
77413;PMS7003;66486;49.992;19.164;2023-06-24T05:30:59;14.33;14.33;9.33
77413;PMS7003;66486;49.992;19.164;2023-06-24T05:33:26;15.75;15.75;10.50
77413;PMS7003;66486;49.992;19.164;2023-06-24T05:35:51;17.00;17.00;12.00
77413;PMS7003;66486;49.992;19.164;2023-06-24T05:38:17;15.50;15.50;10.75
77413;PMS7003;66486;49.992;19.164;2023-06-24T05:40:43;20.33;19.67;13.67
77413;PMS7003;66486;49.992;19.164;2023-06-24T05:43:09;16.00;15.75;12.25
77413;PMS7003;66486;49.992;19.164;2023-06-24T05:45:36;14.50;14.50;8.25
77413;PMS7003;66486;49.992;19.164;2023-06-24T05:48:02;20.75;20.00;12.25
77413;PMS7003;66486;49.992;19.164;2023-06-24T05:50:29;17.25;15.00;9.50
77413;PMS7003;66486;49.992;19.164;2023-06-24T05:52:55;19.25;19.25;13.00
77413;PMS7003;66486;49.992;19.164;2023-06-24T05:55:21;20.33;19.00;13.00
77413;PMS7003;66486;49.992;19.164;2023-06-24T05:57:47;22.50;20.00;12.00
77413;PMS7003;66486;49.992;19.164;2023-06-24T06:00:13;27.00;27.00;14.67
77413;PMS7003;66486;49.992;19.164;2023-06-24T06:02:39;24.00;23.75;14.25
77413;PMS7003;66486;49.992;19.164;2023-06-24T06:05:05;24.67;23.67;14.33
77413;PMS7003;66486;49.992;19.164;2023-06-24T06:07:31;22.50;22.50;13.50
77413;PMS7003;66486;49.992;19.164;2023-06-24T06:09:57;25.25;25.25;16.25
77413;PMS7003;66486;49.992;19.164;2023-06-24T06:12:23;24.50;23.00;15.00
77413;PMS7003;66486;49.992;19.164;2023-06-24T06:14:49;28.67;28.33;16.33
77413;PMS7003;66486;49.992;19.164;2023-06-24T06:17:15;23.00;22.75;14.25
77413;PMS7003;66486;49.992;19.164;2023-06-24T06:19:41;28.00;27.67;16.00
77413;PMS7003;66486;49.992;19.164;2023-06-24T06:22:07;26.25;24.50;14.75
77413;PMS7003;66486;49.992;19.164;2023-06-24T06:24:33;26.67;26.67;15.00
77413;PMS7003;66486;49.992;19.164;2023-06-24T06:26:59;25.00;24.25;16.00
77413;PMS7003;66486;49.992;19.164;2023-06-24T06:29:25;27.00;26.33;18.00
77413;PMS7003;66486;49.992;19.164;2023-06-24T06:31:51;25.75;24.25;14.75
77413;PMS7003;66486;49.992;19.164;2023-06-24T06:34:19;26.00;26.00;17.00
77413;PMS7003;66486;49.992;19.164;2023-06-24T06:36:45;24.50;24.50;14.75
77413;PMS7003;66486;49.992;19.164;2023-06-24T06:39:11;27.67;27.00;16.33
77413;PMS7003;66486;49.992;19.164;2023-06-24T06:41:37;29.25;27.50;17.50
77413;PMS7003;66486;49.992;19.164;2023-06-24T06:44:04;28.75;28.75;17.75
77413;PMS7003;66486;49.992;19.164;2023-06-24T06:46:30;28.00;28.00;18.75
77413;PMS7003;66486;49.992;19.164;2023-06-24T06:48:56;33.67;31.67;18.33
77413;PMS7003;66486;49.992;19.164;2023-06-24T06:51:22;27.00;26.75;14.00
77413;PMS7003;66486;49.992;19.164;2023-06-24T06:53:49;32.50;32.50;18.25
77413;PMS7003;66486;49.992;19.164;2023-06-24T06:56:19;35.25;32.75;21.25
77413;PMS7003;66486;49.992;19.164;2023-06-24T06:58:47;28.50;28.25;15.25
77413;PMS7003;66486;49.992;19.164;2023-06-24T07:01:14;23.75;23.75;14.50
77413;PMS7003;66486;49.992;19.164;2023-06-24T07:03:39;31.33;31.33;20.33
77413;PMS7003;66486;49.992;19.164;2023-06-24T07:06:06;33.50;33.25;19.00
77413;PMS7003;66486;49.992;19.164;2023-06-24T07:08:31;31.33;30.67;17.67
77413;PMS7003;66486;49.992;19.164;2023-06-24T07:10:59;34.75;31.25;19.25
77413;PMS7003;66486;49.992;19.164;2023-06-24T07:13:25;37.33;36.33;23.67
77413;PMS7003;66486;49.992;19.164;2023-06-24T07:15:51;40.75;35.75;22.00
77413;PMS7003;66486;49.992;19.164;2023-06-24T07:18:17;34.33;34.00;20.33
77413;PMS7003;66486;49.992;19.164;2023-06-24T07:20:43;27.50;27.25;19.00
77413;PMS7003;66486;49.992;19.164;2023-06-24T07:23:09;23.67;22.33;15.67
77413;PMS7003;66486;49.992;19.164;2023-06-24T07:25:35;28.75;28.00;18.25
77413;PMS7003;66486;49.992;19.164;2023-06-24T07:28:01;28.50;28.50;19.00
77413;PMS7003;66486;49.992;19.164;2023-06-24T07:30:28;31.25;30.50;17.50
77413;PMS7003;66486;49.992;19.164;2023-06-24T07:32:53;30.00;27.67;19.00
77413;PMS7003;66486;49.992;19.164;2023-06-24T07:35:19;24.50;24.50;17.50
77413;PMS7003;66486;49.992;19.164;2023-06-24T07:37:45;27.33;27.33;16.00
77413;PMS7003;66486;49.992;19.164;2023-06-24T07:40:11;23.75;23.00;15.75
77413;PMS7003;66486;49.992;19.164;2023-06-24T07:42:37;24.25;24.00;17.25
77413;PMS7003;66486;49.992;19.164;2023-06-24T07:45:04;25.00;24.25;14.00
77413;PMS7003;66486;49.992;19.164;2023-06-24T07:47:30;25.75;24.25;16.00
77413;PMS7003;66486;49.992;19.164;2023-06-24T07:49:57;26.00;26.00;16.00
77413;PMS7003;66486;49.992;19.164;2023-06-24T07:52:23;26.00;25.50;17.00
77413;PMS7003;66486;49.992;19.164;2023-06-24T07:54:49;20.25;19.75;15.00
77413;PMS7003;66486;49.992;19.164;2023-06-24T07:57:15;23.33;21.33;14.67
77413;PMS7003;66486;49.992;19.164;2023-06-24T07:59:42;25.00;25.00;17.00
77413;PMS7003;66486;49.992;19.164;2023-06-24T08:02:08;30.00;29.00;19.50
77413;PMS7003;66486;49.992;19.164;2023-06-24T08:04:34;27.25;27.25;18.50
77413;PMS7003;66486;49.992;19.164;2023-06-24T08:07:00;28.67;27.00;19.00
77413;PMS7003;66486;49.992;19.164;2023-06-24T08:09:28;24.75;24.75;15.50
77413;PMS7003;66486;49.992;19.164;2023-06-24T08:11:54;19.67;19.67;13.00
77413;PMS7003;66486;49.992;19.164;2023-06-24T08:14:20;22.00;22.00;15.00
77413;PMS7003;66486;49.992;19.164;2023-06-24T08:16:46;15.67;15.67;9.00
77413;PMS7003;66486;49.992;19.164;2023-06-24T08:19:12;27.00;27.00;14.75
77413;PMS7003;66486;49.992;19.164;2023-06-24T08:21:38;21.00;19.67;13.33
77413;PMS7003;66486;49.992;19.164;2023-06-24T08:24:04;21.00;20.75;14.00
77413;PMS7003;66486;49.992;19.164;2023-06-24T08:26:31;17.67;17.67;13.00
77413;PMS7003;66486;49.992;19.164;2023-06-24T08:28:57;17.25;17.25;13.50
77413;PMS7003;66486;49.992;19.164;2023-06-24T08:31:24;15.25;15.25;13.00
77413;PMS7003;66486;49.992;19.164;2023-06-24T08:33:54;17.25;17.00;13.00
77413;PMS7003;66486;49.992;19.164;2023-06-24T08:36:23;20.00;20.00;14.75
77413;PMS7003;66486;49.992;19.164;2023-06-24T08:38:51;19.00;18.00;13.25
77413;PMS7003;66486;49.992;19.164;2023-06-24T08:41:17;19.33;19.00;13.33
77413;PMS7003;66486;49.992;19.164;2023-06-24T08:43:43;20.00;20.00;13.25
77413;PMS7003;66486;49.992;19.164;2023-06-24T08:46:09;19.33;19.33;15.00
77413;PMS7003;66486;49.992;19.164;2023-06-24T08:48:35;16.00;15.25;13.50
77413;PMS7003;66486;49.992;19.164;2023-06-24T08:51:07;18.50;18.50;11.25
77413;PMS7003;66486;49.992;19.164;2023-06-24T08:53:35;15.25;15.25;11.25
77413;PMS7003;66486;49.992;19.164;2023-06-24T08:56:03;12.75;12.75;10.00
77413;PMS7003;66486;49.992;19.164;2023-06-24T08:58:30;13.75;13.50;10.25
77413;PMS7003;66486;49.992;19.164;2023-06-24T09:00:56;13.00;13.00;9.67
77413;PMS7003;66486;49.992;19.164;2023-06-24T09:03:22;13.00;13.00;8.75
77413;PMS7003;66486;49.992;19.164;2023-06-24T09:05:48;15.00;14.00;10.00
77413;PMS7003;66486;49.992;19.164;2023-06-24T09:08:14;13.50;13.50;9.25
77413;PMS7003;66486;49.992;19.164;2023-06-24T09:10:41;13.25;13.00;8.75
77413;PMS7003;66486;49.992;19.164;2023-06-24T09:13:08;6.25;6.25;5.00
77413;PMS7003;66486;49.992;19.164;2023-06-24T09:15:34;16.75;16.75;12.00
77413;PMS7003;66486;49.992;19.164;2023-06-24T09:18:01;12.25;11.00;8.25
77413;PMS7003;66486;49.992;19.164;2023-06-24T09:20:29;12.50;12.50;9.25
77413;PMS7003;66486;49.992;19.164;2023-06-24T09:23:01;13.25;13.00;9.50
77413;PMS7003;66486;49.992;19.164;2023-06-24T09:25:28;14.25;14.25;10.75
77413;PMS7003;66486;49.992;19.164;2023-06-24T09:27:58;13.50;13.50;10.25
77413;PMS7003;66486;49.992;19.164;2023-06-24T09:30:25;13.75;13.75;9.75
77413;PMS7003;66486;49.992;19.164;2023-06-24T09:32:52;11.75;11.50;8.50
77413;PMS7003;66486;49.992;19.164;2023-06-24T09:35:19;14.50;14.50;11.00
77413;PMS7003;66486;49.992;19.164;2023-06-24T09:40:16;13.00;13.00;8.50
77413;PMS7003;66486;49.992;19.164;2023-06-24T09:42:50;12.75;12.75;9.00
77413;PMS7003;66486;49.992;19.164;2023-06-24T09:45:26;13.75;13.25;10.50
77413;PMS7003;66486;49.992;19.164;2023-06-24T09:47:54;15.00;15.00;10.50
77413;PMS7003;66486;49.992;19.164;2023-06-24T09:50:21;12.50;12.50;8.25
77413;PMS7003;66486;49.992;19.164;2023-06-24T09:52:48;13.50;13.50;9.00
77413;PMS7003;66486;49.992;19.164;2023-06-24T09:55:15;9.75;9.50;8.25
77413;PMS7003;66486;49.992;19.164;2023-06-24T09:57:45;12.75;12.75;9.75
77413;PMS7003;66486;49.992;19.164;2023-06-24T10:00:13;8.25;8.25;4.50
77413;PMS7003;66486;49.992;19.164;2023-06-24T10:02:42;14.50;14.50;9.25
77413;PMS7003;66486;49.992;19.164;2023-06-24T10:05:10;14.00;13.75;9.25
77413;PMS7003;66486;49.992;19.164;2023-06-24T10:07:38;12.25;12.25;8.50
77413;PMS7003;66486;49.992;19.164;2023-06-24T10:10:06;14.50;14.50;11.25
77413;PMS7003;66486;49.992;19.164;2023-06-24T10:12:34;12.75;12.75;9.25
77413;PMS7003;66486;49.992;19.164;2023-06-24T10:15:01;13.50;13.50;9.75
77413;PMS7003;66486;49.992;19.164;2023-06-24T10:17:27;13.75;13.00;8.50
77413;PMS7003;66486;49.992;19.164;2023-06-24T10:19:54;18.75;16.50;11.00
77413;PMS7003;66486;49.992;19.164;2023-06-24T10:22:23;14.00;14.00;11.50
77413;PMS7003;66486;49.992;19.164;2023-06-24T10:24:51;14.75;14.75;10.00
77413;PMS7003;66486;49.992;19.164;2023-06-24T10:27:19;16.25;16.25;11.00
77413;PMS7003;66486;49.992;19.164;2023-06-24T10:29:51;12.50;12.50;10.00
77413;PMS7003;66486;49.992;19.164;2023-06-24T10:32:18;17.00;16.25;10.50
77413;PMS7003;66486;49.992;19.164;2023-06-24T10:34:46;13.00;13.00;11.50
77413;PMS7003;66486;49.992;19.164;2023-06-24T10:37:17;17.75;17.75;13.00
77413;PMS7003;66486;49.992;19.164;2023-06-24T10:39:48;11.00;11.00;7.00
77413;PMS7003;66486;49.992;19.164;2023-06-24T10:42:32;14.00;14.00;11.00
77413;PMS7003;66486;49.992;19.164;2023-06-24T10:45:13;16.50;16.50;12.50
77413;PMS7003;66486;49.992;19.164;2023-06-24T10:47:44;15.75;15.75;11.75
77413;PMS7003;66486;49.992;19.164;2023-06-24T10:50:12;17.25;17.25;14.25
77413;PMS7003;66486;49.992;19.164;2023-06-24T10:52:46;16.50;16.50;12.25
77413;PMS7003;66486;49.992;19.164;2023-06-24T10:55:16;18.00;18.00;10.50
77413;PMS7003;66486;49.992;19.164;2023-06-24T10:57:44;18.00;18.00;12.25
77413;PMS7003;66486;49.992;19.164;2023-06-24T11:00:12;15.75;15.50;11.50
77413;PMS7003;66486;49.992;19.164;2023-06-24T11:02:39;15.75;15.25;11.50
77413;PMS7003;66486;49.992;19.164;2023-06-24T11:05:06;15.33;15.33;11.00
77413;PMS7003;66486;49.992;19.164;2023-06-24T11:07:33;15.00;14.25;11.00
77413;PMS7003;66486;49.992;19.164;2023-06-24T11:10:01;16.25;16.25;13.50
77413;PMS7003;66486;49.992;19.164;2023-06-24T11:12:30;22.00;21.00;15.25
77413;PMS7003;66486;49.992;19.164;2023-06-24T11:15:04;61.00;51.75;33.50
77413;PMS7003;66486;49.992;19.164;2023-06-24T11:17:32;38.75;36.50;26.00
77413;PMS7003;66486;49.992;19.164;2023-06-24T11:20:05;28.00;27.25;20.25
77413;PMS7003;66486;49.992;19.164;2023-06-24T11:22:35;24.75;24.75;16.75
77413;PMS7003;66486;49.992;19.164;2023-06-24T11:25:01;30.25;30.25;22.00
77413;PMS7003;66486;49.992;19.164;2023-06-24T11:27:28;29.25;29.25;20.50
77413;PMS7003;66486;49.992;19.164;2023-06-24T11:29:57;32.50;32.25;21.50
77413;PMS7003;66486;49.992;19.164;2023-06-24T11:32:24;31.25;31.25;21.75
77413;PMS7003;66486;49.992;19.164;2023-06-24T11:34:50;32.00;32.00;22.75
77413;PMS7003;66486;49.992;19.164;2023-06-24T11:37:17;28.00;28.00;17.75
77413;PMS7003;66486;49.992;19.164;2023-06-24T11:39:44;24.25;22.50;16.50
77413;PMS7003;66486;49.992;19.164;2023-06-24T11:42:25;33.25;33.25;19.00
77413;PMS7003;66486;49.992;19.164;2023-06-24T11:44:53;23.00;23.00;17.25
77413;PMS7003;66486;49.992;19.164;2023-06-24T11:47:25;20.00;20.00;14.00
77413;PMS7003;66486;49.992;19.164;2023-06-24T11:49:52;20.50;20.50;14.75
77413;PMS7003;66486;49.992;19.164;2023-06-24T11:52:42;23.75;23.50;15.75
77413;PMS7003;66486;49.992;19.164;2023-06-24T11:55:21;15.00;14.75;10.50
77413;PMS7003;66486;49.992;19.164;2023-06-24T11:57:58;18.75;18.75;13.00
77413;PMS7003;66486;49.992;19.164;2023-06-24T12:00:28;17.75;17.75;13.50
77413;PMS7003;66486;49.992;19.164;2023-06-24T12:03:00;22.00;22.00;15.00
77413;PMS7003;66486;49.992;19.164;2023-06-24T12:05:29;22.50;20.75;15.00
77413;PMS7003;66486;49.992;19.164;2023-06-24T12:08:06;21.75;21.75;16.00
77413;PMS7003;66486;49.992;19.164;2023-06-24T12:10:34;21.75;21.75;15.00
77413;PMS7003;66486;49.992;19.164;2023-06-24T12:13:01;18.50;18.50;13.75
77413;PMS7003;66486;49.992;19.164;2023-06-24T12:15:29;24.33;24.00;15.33
77413;PMS7003;66486;49.992;19.164;2023-06-24T12:17:55;18.25;18.25;14.00
77413;PMS7003;66486;49.992;19.164;2023-06-24T12:20:21;20.00;19.00;14.75
77413;PMS7003;66486;49.992;19.164;2023-06-24T12:22:48;14.75;14.75;12.00
77413;PMS7003;66486;49.992;19.164;2023-06-24T12:25:14;11.25;11.25;8.50
77413;PMS7003;66486;49.992;19.164;2023-06-24T12:27:41;16.00;16.00;7.25
77413;PMS7003;66486;49.992;19.164;2023-06-24T12:30:08;18.50;18.50;13.25
77413;PMS7003;66486;49.992;19.164;2023-06-24T12:32:35;20.00;20.00;13.75
77413;PMS7003;66486;49.992;19.164;2023-06-24T12:35:02;18.00;18.00;12.00
77413;PMS7003;66486;49.992;19.164;2023-06-24T12:37:32;18.25;16.25;10.00
77413;PMS7003;66486;49.992;19.164;2023-06-24T12:39:59;17.25;17.25;14.00
77413;PMS7003;66486;49.992;19.164;2023-06-24T12:42:26;16.00;16.00;9.75
77413;PMS7003;66486;49.992;19.164;2023-06-24T12:44:52;15.00;15.00;10.75
77413;PMS7003;66486;49.992;19.164;2023-06-24T12:47:19;18.25;18.25;11.50
77413;PMS7003;66486;49.992;19.164;2023-06-24T12:49:46;11.00;11.00;10.00
77413;PMS7003;66486;49.992;19.164;2023-06-24T12:52:12;16.00;16.00;10.00
77413;PMS7003;66486;49.992;19.164;2023-06-24T12:54:38;15.50;15.50;10.25
77413;PMS7003;66486;49.992;19.164;2023-06-24T12:57:05;13.00;13.00;8.75
77413;PMS7003;66486;49.992;19.164;2023-06-24T12:59:31;14.75;14.75;12.25
77413;PMS7003;66486;49.992;19.164;2023-06-24T13:01:57;15.50;15.00;10.50
77413;PMS7003;66486;49.992;19.164;2023-06-24T13:04:23;15.67;15.67;11.33
77413;PMS7003;66486;49.992;19.164;2023-06-24T13:06:52;15.75;15.75;10.00
77413;PMS7003;66486;49.992;19.164;2023-06-24T13:09:18;14.00;14.00;12.00
77413;PMS7003;66486;49.992;19.164;2023-06-24T13:11:44;15.00;15.00;11.00
77413;PMS7003;66486;49.992;19.164;2023-06-24T13:14:10;16.25;16.00;12.00
77413;PMS7003;66486;49.992;19.164;2023-06-24T13:16:38;16.50;16.50;12.50
77413;PMS7003;66486;49.992;19.164;2023-06-24T13:19:04;12.00;12.00;9.00
77413;PMS7003;66486;49.992;19.164;2023-06-24T13:21:30;15.50;15.50;11.50
77413;PMS7003;66486;49.992;19.164;2023-06-24T13:23:56;14.50;14.50;11.00
77413;PMS7003;66486;49.992;19.164;2023-06-24T13:26:23;15.50;15.50;12.50
77413;PMS7003;66486;49.992;19.164;2023-06-24T13:28:49;12.00;12.00;9.50
77413;PMS7003;66486;49.992;19.164;2023-06-24T13:31:16;18.00;18.00;12.00
77413;PMS7003;66486;49.992;19.164;2023-06-24T13:33:42;19.00;17.50;9.25
77413;PMS7003;66486;49.992;19.164;2023-06-24T13:36:09;13.75;13.75;8.25
77413;PMS7003;66486;49.992;19.164;2023-06-24T13:38:53;14.25;13.00;9.25
77413;PMS7003;66486;49.992;19.164;2023-06-24T13:41:19;17.75;17.00;12.50
77413;PMS7003;66486;49.992;19.164;2023-06-24T13:43:45;17.33;17.33;12.67
77413;PMS7003;66486;49.992;19.164;2023-06-24T13:46:11;10.75;10.50;7.75
77413;PMS7003;66486;49.992;19.164;2023-06-24T13:48:37;7.00;7.00;6.00
77413;PMS7003;66486;49.992;19.164;2023-06-24T13:51:03;14.75;14.00;9.25
77413;PMS7003;66486;49.992;19.164;2023-06-24T13:53:29;14.00;14.00;9.00
77413;PMS7003;66486;49.992;19.164;2023-06-24T13:55:55;12.75;12.75;9.25
77413;PMS7003;66486;49.992;19.164;2023-06-24T13:58:21;12.00;12.00;8.00
77413;PMS7003;66486;49.992;19.164;2023-06-24T14:00:47;12.25;12.25;8.50
77413;PMS7003;66486;49.992;19.164;2023-06-24T14:03:13;13.00;12.67;9.67